Time;durP1;ratioP1;P1;durP2;ratioP2;P2;SDS_P1;SDS_P2;PMS_P1;PMS_P2;Temp;Humidity;BMP_temperature;BMP_pressure;BME280_temperature;BME280_humidity;BME280_pressure;Samples;Min_cycle;Max_cycle;Signal;HPM_P1;HPM_P2
2021/04/27 00:00:21;;;;;;;14.30;5.25;;;5.90;99.90;;;;;;5068620;28;20665;-82
2021/04/27 00:02:48;;;;;;;11.05;6.28;;;5.90;99.90;;;;;;5035063;28;20059;-82
2021/04/27 00:05:17;;;;;;;17.15;6.88;;;5.90;99.90;;;;;;5053317;28;20484;-80
2021/04/27 00:07:45;;;;;;;13.70;5.68;;;5.90;99.90;;;;;;5050528;28;20063;-80
2021/04/27 00:10:14;;;;;;;13.95;6.43;;;5.80;99.90;;;;;;5068995;28;20381;-80
2021/04/27 00:12:42;;;;;;;9.05;5.15;;;5.90;99.90;;;;;;5067750;28;20059;-82
2021/04/27 00:15:12;;;;;;;14.32;6.78;;;5.80;99.90;;;;;;5075021;28;20041;-79
2021/04/27 00:17:39;;;;;;;7.75;4.65;;;5.80;99.90;;;;;;5054940;28;20041;-81
2021/04/27 00:20:07;;;;;;;12.48;5.75;;;5.70;99.90;;;;;;5045646;28;20056;-82
2021/04/27 00:22:35;;;;;;;8.95;5.30;;;5.70;99.90;;;;;;5079255;28;20047;-81
2021/04/27 00:25:03;;;;;;;12.00;5.32;;;5.60;99.90;;;;;;5076449;28;20232;-80
2021/04/27 00:27:31;;;;;;;20.27;6.95;;;5.60;99.90;;;;;;5043747;28;20053;-82
2021/04/27 00:29:59;;;;;;;12.38;6.03;;;5.50;99.90;;;;;;5074796;28;20360;-80
2021/04/27 00:32:27;;;;;;;11.88;5.68;;;5.40;99.90;;;;;;5055240;28;20343;-81
2021/04/27 00:34:54;;;;;;;9.32;5.03;;;5.20;99.90;;;;;;5074489;28;20036;-83
2021/04/27 00:37:22;;;;;;;8.45;5.03;;;5.90;99.90;;;;;;5075694;28;20048;-81
2021/04/27 00:39:49;;;;;;;15.15;5.32;;;5.10;99.90;;;;;;5073241;28;20048;-81
2021/04/27 00:42:19;;;;;;;15.07;4.97;;;5.10;99.90;;;;;;5054079;28;20048;-80
2021/04/27 00:44:46;;;;;;;9.32;5.30;;;5.00;99.90;;;;;;5072768;28;20044;-80
2021/04/27 00:47:13;;;;;;;10.18;5.60;;;4.90;99.90;;;;;;5074474;28;20056;-80
2021/04/27 00:49:40;;;;;;;14.48;6.60;;;4.80;99.90;;;;;;5075391;28;20053;-82
2021/04/27 00:52:07;;;;;;;22.55;8.75;;;4.70;99.90;;;;;;5037080;28;20051;-80
2021/04/27 00:54:35;;;;;;;10.63;6.03;;;4.70;99.90;;;;;;5053046;28;20045;-80
2021/04/27 00:57:02;;;;;;;12.02;6.80;;;4.60;99.90;;;;;;5057320;28;20055;-80
2021/04/27 00:59:29;;;;;;;11.63;6.97;;;4.50;99.90;;;;;;5066251;28;20546;-80
2021/04/27 01:01:57;;;;;;;29.33;8.35;;;4.50;99.90;;;;;;5074137;28;20048;-81
2021/04/27 01:04:24;;;;;;;15.93;6.65;;;4.50;99.90;;;;;;5072255;28;20044;-84
2021/04/27 01:06:52;;;;;;;10.15;5.18;;;4.40;99.90;;;;;;5044217;28;20052;-80
2021/04/27 01:09:33;;;;;;;15.65;6.50;;;4.30;99.90;;;;;;5055679;28;20052;-80
2021/04/27 01:12:28;;;;;;;14.07;7.13;;;4.20;99.90;;;;;;5071912;28;20052;-80
2021/04/27 01:15:10;;;;;;;15.63;6.50;;;4.70;99.90;;;;;;5051343;28;20052;-80
2021/04/27 01:17:39;;;;;;;14.65;6.25;;;4.00;99.90;;;;;;5057449;28;20044;-81
2021/04/27 01:20:13;;;;;;;13.32;6.45;;;3.90;99.90;;;;;;5077279;28;20059;-81
2021/04/27 01:23:12;;;;;;;12.88;5.55;;;3.90;99.90;;;;;;5056272;28;20045;-81
2021/04/27 01:25:51;;;;;;;12.70;6.47;;;3.80;99.90;;;;;;5072157;28;20223;-81
2021/04/27 01:28:20;;;;;;;18.38;8.93;;;3.80;99.90;;;;;;5058346;28;20533;-81
2021/04/27 01:30:48;;;;;;;22.85;7.30;;;3.50;99.90;;;;;;5060068;28;20044;-82
2021/04/27 01:33:19;;;;;;;13.88;7.28;;;3.70;99.90;;;;;;5052366;28;20071;-80
2021/04/27 01:35:46;;;;;;;22.48;10.57;;;3.80;99.90;;;;;;5067270;28;20045;-80
2021/04/27 01:38:17;;;;;;;19.52;9.00;;;3.70;99.90;;;;;;5065042;28;20071;-80
2021/04/27 01:40:45;;;;;;;19.88;10.77;;;4.50;99.90;;;;;;5048337;28;20052;-80
2021/04/27 01:43:13;;;;;;;13.98;7.80;;;3.60;99.90;;;;;;5048276;28;20052;-80
2021/04/27 01:45:41;;;;;;;17.45;7.50;;;4.10;99.90;;;;;;5049420;28;20040;-81
2021/04/27 01:48:09;;;;;;;16.17;8.07;;;4.50;99.90;;;;;;5066423;28;20060;-80
2021/04/27 01:50:44;;;;;;;14.85;6.32;;;3.40;99.90;;;;;;5055481;28;20040;-81
2021/04/27 01:53:30;;;;;;;23.15;7.20;;;3.40;99.90;;;;;;5059442;28;20045;-82
2021/04/27 01:55:57;;;;;;;14.70;6.82;;;3.30;99.90;;;;;;5051688;28;20064;-81
2021/04/27 01:58:24;;;;;;;13.80;7.60;;;3.50;99.90;;;;;;5066612;28;20052;-80
2021/04/27 02:00:51;;;;;;;16.70;9.15;;;3.30;99.90;;;;;;5070888;28;20056;-80
2021/04/27 02:03:18;;;;;;;13.43;7.53;;;3.20;99.90;;;;;;5058453;28;20049;-80
2021/04/27 02:05:51;;;;;;;15.93;7.32;;;3.20;99.90;;;;;;5073559;28;20052;-81
2021/04/27 02:08:23;;;;;;;;;;;3.20;99.90;;;;;;5057793;28;20518;-80
2021/04/27 02:10:53;;;;;;;21.58;10.45;;;3.10;99.90;;;;;;5060158;28;19921;-81
2021/04/27 02:13:22;;;;;;;21.45;7.53;;;3.10;99.90;;;;;;5054916;28;20056;-80
2021/04/27 02:15:56;;;;;;;21.17;7.60;;;3.30;99.90;;;;;;5055331;28;20044;-79
2021/04/27 02:18:47;;;;;;;23.00;9.60;;;3.00;99.90;;;;;;5053150;28;20522;-80
2021/04/27 02:21:17;;;;;;;16.52;9.27;;;2.90;99.90;;;;;;5044958;28;20040;-80
2021/04/27 02:24:03;;;;;;;20.45;8.73;;;2.90;99.90;;;;;;5069445;28;20045;-80
2021/04/27 02:26:37;;;;;;;16.10;9.85;;;2.80;99.90;;;;;;5044125;28;20059;-83
2021/04/27 02:29:16;;;;;;;20.58;10.13;;;2.80;99.90;;;;;;5052636;28;20040;-81
2021/04/27 02:31:44;;;;;;;17.08;10.10;;;2.80;99.90;;;;;;5052442;28;20052;-79
2021/04/27 02:34:13;;;;;;;16.63;8.55;;;2.80;99.90;;;;;;5055618;28;20041;-80
2021/04/27 02:36:42;;;;;;;15.75;8.23;;;2.80;99.90;;;;;;5052492;28;20439;-80
2021/04/27 02:39:17;;;;;;;22.45;8.63;;;2.70;99.90;;;;;;5071578;28;20044;-80
2021/04/27 02:41:45;;;;;;;20.63;8.32;;;2.70;99.90;;;;;;5056425;28;20036;-80
2021/04/27 02:44:31;;;;;;;17.08;8.40;;;2.70;99.90;;;;;;5071917;28;20040;-80
2021/04/27 02:46:59;;;;;;;15.90;9.32;;;2.70;99.90;;;;;;5068070;28;20048;-79
2021/04/27 02:49:26;;;;;;;16.52;8.55;;;2.60;99.90;;;;;;5053827;28;20048;-79
2021/04/27 02:52:00;;;;;;;19.83;7.93;;;3.40;99.90;;;;;;5060473;28;20041;-80
2021/04/27 02:54:30;;;;;;;18.83;8.93;;;3.00;99.90;;;;;;5049625;28;20049;-79
2021/04/27 02:56:58;;;;;;;18.83;9.35;;;2.60;99.90;;;;;;5051807;28;20045;-81
2021/04/27 02:59:36;;;;;;;23.25;11.27;;;2.60;99.90;;;;;;5045380;28;20048;-80
2021/04/27 03:02:04;;;;;;;21.95;7.88;;;2.50;99.90;;;;;;5054372;28;20052;-80
2021/04/27 03:04:32;;;;;;;22.80;10.48;;;3.00;99.90;;;;;;5060642;28;20059;-81
2021/04/27 03:07:22;;;;;;;16.02;9.30;;;2.60;99.90;;;;;;5051544;28;20048;-80
2021/04/27 03:09:50;;;;;;;21.17;9.85;;;3.60;99.90;;;;;;5038951;28;20603;-80
2021/04/27 03:12:17;;;;;;;27.13;9.18;;;2.50;99.90;;;;;;5051258;28;20052;-79
2021/04/27 03:14:44;;;;;;;21.30;9.82;;;2.60;99.90;;;;;;5053045;28;20560;-80
2021/04/27 03:17:14;;;;;;;19.95;11.00;;;2.90;99.90;;;;;;5069933;28;20052;-80
2021/04/27 03:19:51;;;;;;;18.15;9.05;;;2.40;99.90;;;;;;5071922;28;20048;-81
2021/04/27 03:22:27;;;;;;;27.20;11.60;;;2.40;99.90;;;;;;5052531;28;20071;-80
2021/04/27 03:24:54;;;;;;;21.10;9.50;;;2.30;99.90;;;;;;5071163;28;20056;-80
2021/04/27 03:27:23;;;;;;;21.05;8.63;;;2.30;99.90;;;;;;5055191;28;20045;-81
2021/04/27 03:30:28;;;;;;;24.77;9.10;;;3.50;99.90;;;;;;5040687;28;20041;-81
2021/04/27 03:33:07;;;;;;;18.33;9.05;;;2.30;99.90;;;;;;5061267;28;20055;-81
2021/04/27 03:35:35;;;;;;;36.00;11.80;;;2.30;99.90;;;;;;5057301;28;20055;-84
2021/04/27 03:38:03;;;;;;;21.35;9.82;;;2.40;99.90;;;;;;5063739;28;20514;-80
2021/04/27 03:40:31;;;;;;;20.70;10.38;;;2.30;99.90;;;;;;5049796;28;20041;-83
2021/04/27 03:42:58;;;;;;;22.35;10.38;;;2.30;99.90;;;;;;5074944;28;20472;-80
2021/04/27 03:45:37;;;;;;;19.52;10.90;;;2.20;99.90;;;;;;5039403;28;20071;-80
2021/04/27 03:48:13;;;;;;;28.70;12.38;;;2.20;99.90;;;;;;5039400;28;20087;-81
2021/04/27 03:50:48;;;;;;;26.92;12.32;;;2.20;99.90;;;;;;5073667;28;20040;-80
2021/04/27 03:53:45;;;;;;;24.25;10.73;;;2.20;99.90;;;;;;5059911;28;20053;-80
2021/04/27 03:56:23;;;;;;;22.50;11.95;;;2.20;99.90;;;;;;5055658;28;20052;-80
2021/04/27 03:58:52;;;;;;;18.05;10.43;;;2.20;99.90;;;;;;5039827;28;20045;-80
2021/04/27 04:01:20;;;;;;;26.55;11.50;;;2.20;99.90;;;;;;5075584;28;20049;-80
2021/04/27 04:03:48;;;;;;;18.63;11.38;;;2.20;99.90;;;;;;5073179;28;20032;-80
2021/04/27 04:06:15;;;;;;;24.55;12.60;;;2.20;99.90;;;;;;5056882;28;20053;-80
2021/04/27 04:09:04;;;;;;;24.08;10.68;;;2.20;99.90;;;;;;5057452;28;20483;-80
2021/04/27 04:11:44;;;;;;;24.17;11.25;;;2.10;99.90;;;;;;5069069;28;20064;-80
2021/04/27 04:14:12;;;;;;;26.15;10.70;;;2.00;99.90;;;;;;5053277;28;20118;-80
2021/04/27 04:17:09;;;;;;;23.17;11.95;;;2.00;99.90;;;;;;5048295;28;20052;-79
2021/04/27 04:19:37;;;;;;;21.00;12.30;;;2.00;99.90;;;;;;5039357;28;20060;-79
2021/04/27 04:22:06;;;;;;;21.33;10.52;;;1.90;99.90;;;;;;5037792;28;20045;-80
2021/04/27 04:24:41;;;;;;;28.58;13.57;;;2.00;99.90;;;;;;5045038;28;20040;-80
2021/04/27 04:27:09;;;;;;;28.67;12.82;;;2.20;99.90;;;;;;5068648;28;20059;-80
2021/04/27 04:29:39;;;;;;;30.08;13.82;;;3.00;99.90;;;;;;5070806;28;20036;-81
2021/04/27 04:32:25;;;;;;;26.60;15.23;;;1.90;99.90;;;;;;5063615;28;20047;-80
2021/04/27 04:35:13;;;;;;;27.00;13.02;;;1.90;99.90;;;;;;5072574;28;20406;-80
2021/04/27 04:37:59;;;;;;;26.73;12.40;;;1.90;99.90;;;;;;5072180;28;20048;-80
2021/04/27 04:40:46;;;;;;;28.75;14.88;;;1.90;99.90;;;;;;5071545;28;20053;-79
2021/04/27 04:43:33;;;;;;;31.10;13.55;;;1.90;99.90;;;;;;5040685;28;20044;-80
2021/04/27 04:46:19;;;;;;;41.58;15.57;;;1.90;99.90;;;;;;5056970;28;20059;-80
2021/04/27 04:49:05;;;;;;;28.83;16.20;;;1.90;99.90;;;;;;5057115;28;20057;-80
2021/04/27 04:51:53;;;;;;;25.88;14.65;;;1.90;99.90;;;;;;5020419;28;20063;-80
2021/04/27 04:54:40;;;;;;;28.27;14.57;;;1.90;99.90;;;;;;5049755;28;20419;-81
2021/04/27 04:57:23;;;;;;;25.55;12.70;;;2.00;99.90;;;;;;5071597;28;20431;-80
2021/04/27 04:59:50;;;;;;;50.10;17.27;;;2.00;99.90;;;;;;5037556;28;20432;-80
2021/04/27 05:02:18;;;;;;;28.45;14.35;;;4.10;99.90;;;;;;5065484;28;20610;-79
2021/04/27 05:05:05;;;;;;;30.40;14.65;;;2.00;99.90;;;;;;5072836;28;20241;-80
2021/04/27 05:08:01;;;;;;;28.17;13.98;;;2.00;99.90;;;;;;5070644;28;20048;-81
2021/04/27 05:10:51;;;;;;;27.85;15.05;;;2.00;99.90;;;;;;5048758;28;20047;-79
2021/04/27 05:13:30;;;;;;;31.52;14.30;;;2.10;99.90;;;;;;5053244;28;20055;-80
2021/04/27 05:15:57;;;;;;;28.17;15.38;;;2.10;99.90;;;;;;5035743;28;20040;-80
2021/04/27 05:18:25;;;;;;;29.90;13.73;;;2.20;99.90;;;;;;5069903;28;20059;-79
2021/04/27 05:20:53;;;;;;;28.20;13.73;;;2.20;99.90;;;;;;5069992;28;20051;-79
2021/04/27 05:23:23;;;;;;;41.22;16.00;;;2.30;99.90;;;;;;5071025;28;20060;-79
2021/04/27 05:25:50;;;;;;;28.08;14.20;;;2.30;99.90;;;;;;5051517;28;20051;-81
2021/04/27 05:28:19;;;;;;;33.50;14.93;;;2.30;99.90;;;;;;5053564;28;20047;-79
2021/04/27 05:30:47;;;;;;;28.50;14.98;;;2.40;99.90;;;;;;5068761;28;20048;-80
2021/04/27 05:33:14;;;;;;;41.85;16.88;;;3.40;99.90;;;;;;5070661;28;20060;-80
2021/04/27 05:35:41;;;;;;;36.95;14.52;;;2.40;99.90;;;;;;5051668;28;20037;-80
2021/04/27 05:38:09;;;;;;;26.98;14.20;;;2.00;99.90;;;;;;5069159;28;20420;-80
2021/04/27 05:40:37;;;;;;;26.98;14.18;;;2.60;99.90;;;;;;5067216;28;20044;-80
2021/04/27 05:43:05;;;;;;;29.50;16.67;;;2.60;99.90;;;;;;5051704;28;20055;-80
2021/04/27 05:45:33;;;;;;;41.63;16.73;;;2.70;99.90;;;;;;5070350;28;20052;-79
2021/04/27 05:48:00;;;;;;;36.15;14.98;;;4.50;99.90;;;;;;5050520;28;20060;-79
2021/04/27 05:50:27;;;;;;;30.10;16.05;;;2.80;99.90;;;;;;5072216;28;20048;-80
2021/04/27 05:52:54;;;;;;;32.17;16.13;;;2.90;99.90;;;;;;5046179;28;20059;-79
2021/04/27 05:55:21;;;;;;;26.67;13.98;;;3.00;99.90;;;;;;5035292;28;20052;-81
2021/04/27 05:57:49;;;;;;;33.72;16.05;;;3.10;99.90;;;;;;5033061;28;20036;-80
2021/04/27 06:00:17;;;;;;;26.08;14.00;;;3.80;99.90;;;;;;5064414;28;20032;-82
2021/04/27 06:02:45;;;;;;;24.80;13.95;;;3.20;99.90;;;;;;5068713;28;20048;-80
2021/04/27 06:05:13;;;;;;;24.30;14.45;;;3.30;99.90;;;;;;5070109;28;20396;-80
2021/04/27 06:07:40;;;;;;;25.80;15.52;;;3.40;99.90;;;;;;5050369;28;20495;-80
2021/04/27 06:10:08;;;;;;;29.92;15.20;;;3.50;99.90;;;;;;5069948;28;20049;-81
2021/04/27 06:12:35;;;;;;;27.35;13.35;;;3.60;99.90;;;;;;5069814;28;20060;-80
2021/04/27 06:15:04;;;;;;;25.13;14.35;;;3.60;99.90;;;;;;5068244;28;20060;-81
2021/04/27 06:17:33;;;;;;;28.98;14.40;;;3.70;99.90;;;;;;5070206;28;20047;-80
2021/04/27 06:20:03;;;;;;;32.45;15.02;;;3.80;99.90;;;;;;5050494;28;20036;-79
2021/04/27 06:22:30;;;;;;;33.58;16.02;;;3.90;99.90;;;;;;5071218;28;20079;-79
2021/04/27 06:24:58;;;;;;;29.65;15.25;;;4.00;99.90;;;;;;5068963;28;20040;-80
2021/04/27 06:27:28;;;;;;;34.30;15.05;;;5.10;99.90;;;;;;5070183;28;20048;-79
2021/04/27 06:29:59;;;;;;;27.90;15.38;;;4.20;99.90;;;;;;5054437;28;20499;-80
2021/04/27 06:32:27;;;;;;;30.30;16.10;;;4.30;99.90;;;;;;5053024;28;20065;-80
2021/04/27 06:34:55;;;;;;;30.13;16.35;;;4.40;99.90;;;;;;5069748;28;20625;-82
2021/04/27 06:37:23;;;;;;;37.28;17.33;;;4.50;99.90;;;;;;5071965;28;20044;-82
2021/04/27 06:39:50;;;;;;;30.73;17.05;;;4.60;99.90;;;;;;5069021;28;20048;-83
2021/04/27 06:42:18;;;;;;;35.58;15.93;;;4.70;99.90;;;;;;5050866;28;20040;-81
2021/04/27 06:44:45;;;;;;;31.92;16.35;;;4.80;99.90;;;;;;5045787;28;20052;-80
2021/04/27 06:47:16;;;;;;;34.22;17.88;;;4.90;99.90;;;;;;5051189;28;20045;-80
2021/04/27 06:49:43;;;;;;;27.88;15.70;;;5.70;99.90;;;;;;5072371;28;20063;-80
2021/04/27 06:52:12;;;;;;;29.42;16.27;;;5.10;99.90;;;;;;5071577;28;20052;-82
2021/04/27 06:54:39;;;;;;;36.17;17.48;;;5.20;99.90;;;;;;5073536;28;20044;-80
2021/04/27 06:57:07;;;;;;;28.60;15.75;;;5.30;99.90;;;;;;5039891;28;20052;-79
2021/04/27 06:59:40;;;;;;;33.95;18.40;;;5.40;99.90;;;;;;5049605;28;20049;-79
2021/04/27 07:02:09;;;;;;;35.72;15.75;;;5.40;99.90;;;;;;5058255;28;20036;-79
2021/04/27 07:04:41;;;;;;;28.10;15.48;;;5.50;99.90;;;;;;5066743;28;20727;-81
2021/04/27 07:07:09;;;;;;;31.35;16.58;;;5.60;99.90;;;;;;5070826;28;20045;-82
2021/04/27 07:09:37;;;;;;;38.88;18.30;;;6.40;99.90;;;;;;5054372;28;20714;-80
2021/04/27 07:12:07;;;;;;;40.53;16.38;;;5.90;99.90;;;;;;5069115;28;20056;-81
2021/04/27 07:14:34;;;;;;;30.60;17.42;;;6.00;99.90;;;;;;5051836;28;20052;-81
2021/04/27 07:17:02;;;;;;;29.98;16.92;;;6.10;99.90;;;;;;5049596;28;20044;-81
2021/04/27 07:19:35;;;;;;;30.63;17.30;;;6.20;99.90;;;;;;5051149;28;20049;-81
2021/04/27 07:22:04;;;;;;;34.72;17.75;;;6.30;99.90;;;;;;4719238;28;10000299;-81
2021/04/27 07:24:34;;;;;;;27.23;16.60;;;6.40;99.90;;;;;;5049418;28;20064;-82
2021/04/27 07:27:03;;;;;;;34.03;17.80;;;7.90;99.90;;;;;;5069536;28;20068;-82
2021/04/27 07:29:31;;;;;;;31.08;16.48;;;6.60;99.90;;;;;;5033882;28;20045;-80
2021/04/27 07:31:59;;;;;;;27.90;15.75;;;6.70;99.90;;;;;;5073392;28;20033;-82
2021/04/27 07:34:27;;;;;;;28.25;14.88;;;6.80;99.90;;;;;;5045398;28;20065;-82
2021/04/27 07:36:55;;;;;;;29.58;14.90;;;7.00;99.90;;;;;;5049740;28;20063;-82
2021/04/27 07:39:22;;;;;;;30.48;13.68;;;7.10;99.90;;;;;;5059940;28;20052;-83
2021/04/27 07:41:51;;;;;;;27.10;14.48;;;7.30;99.90;;;;;;5049476;28;20064;-84
2021/04/27 07:44:18;;;;;;;23.27;12.93;;;7.80;99.90;;;;;;5033081;28;20136;-82
2021/04/27 07:46:45;;;;;;;29.02;12.10;;;7.60;99.90;;;;;;5031255;28;20048;-82
2021/04/27 07:49:13;;;;;;;23.45;12.80;;;7.80;99.90;;;;;;5065731;28;20040;-82
2021/04/27 07:51:40;;;;;;;31.33;15.07;;;8.00;99.90;;;;;;5049868;28;20056;-82
2021/04/27 07:54:08;;;;;;;24.75;14.73;;;8.20;99.90;;;;;;5057308;28;20075;-83
2021/04/27 07:56:35;;;;;;;37.47;13.25;;;8.40;99.90;;;;;;5069767;28;20048;-89
2021/04/27 07:59:05;;;;;;;27.75;14.73;;;8.60;99.90;;;;;;5060715;28;20052;-82
2021/04/27 08:01:34;;;;;;;27.77;13.02;;;8.80;99.90;;;;;;5068861;28;20063;-82
2021/04/27 08:04:03;;;;;;;30.80;11.75;;;8.90;99.90;;;;;;5031421;28;20052;-82
2021/04/27 08:06:30;;;;;;;24.92;12.65;;;9.00;99.90;;;;;;5050062;28;20416;-82
2021/04/27 08:09:00;;;;;;;22.17;10.30;;;9.10;99.90;;;;;;5049569;28;20051;-83
2021/04/27 08:11:30;;;;;;;25.17;11.27;;;9.30;99.90;;;;;;5052323;28;20055;-83
2021/04/27 08:13:59;;;;;;;19.50;9.48;;;9.40;99.90;;;;;;5067256;28;20056;-82
2021/04/27 08:16:27;;;;;;;22.00;10.90;;;9.50;99.90;;;;;;5069279;28;20052;-82
2021/04/27 08:18:54;;;;;;;24.25;10.38;;;9.60;99.90;;;;;;5068816;28;20053;-82
2021/04/27 08:21:23;;;;;;;25.90;11.70;;;9.70;99.90;;;;;;5066088;28;20041;-83
2021/04/27 08:23:51;;;;;;;25.08;12.00;;;9.70;99.90;;;;;;5049532;28;20048;-83
2021/04/27 08:26:19;;;;;;;21.17;11.45;;;9.80;99.90;;;;;;5064403;28;20114;-82
2021/04/27 08:28:46;;;;;;;23.98;11.35;;;9.80;99.90;;;;;;5069268;28;20148;-82
2021/04/27 08:31:13;;;;;;;19.52;9.80;;;9.90;99.90;;;;;;5052708;28;20052;-85
2021/04/27 08:33:41;;;;;;;25.15;9.80;;;10.00;99.90;;;;;;5071952;28;20048;-83
2021/04/27 08:36:08;;;;;;;21.40;10.02;;;10.00;99.90;;;;;;5049936;28;20044;-82
2021/04/27 08:38:36;;;;;;;25.00;11.27;;;10.00;99.90;;;;;;5070963;28;20051;-84
2021/04/27 08:41:04;;;;;;;24.92;11.93;;;10.10;99.90;;;;;;5055404;28;20052;-83
2021/04/27 08:43:31;;;;;;;25.67;12.20;;;10.10;99.90;;;;;;5071211;28;20673;-83
2021/04/27 08:45:59;;;;;;;22.42;11.38;;;10.10;99.90;;;;;;5069070;28;20044;-82
2021/04/27 08:48:26;;;;;;;20.02;9.73;;;10.30;99.90;;;;;;5070230;28;20053;-82
2021/04/27 08:50:54;;;;;;;23.30;10.48;;;10.40;99.90;;;;;;5052671;28;20487;-83
2021/04/27 08:53:21;;;;;;;22.70;9.80;;;10.50;99.90;;;;;;5065604;28;20479;-82
2021/04/27 08:55:49;;;;;;;24.95;10.25;;;10.60;99.90;;;;;;5050394;28;20045;-82
2021/04/27 08:58:17;;;;;;;27.85;10.73;;;10.70;99.90;;;;;;5069530;28;20052;-82
2021/04/27 09:00:45;;;;;;;25.58;9.30;;;10.80;99.90;;;;;;5071124;28;20056;-82
2021/04/27 09:03:13;;;;;;;18.58;9.45;;;10.90;99.90;;;;;;5073132;28;20529;-83
2021/04/27 09:05:42;;;;;;;24.50;9.73;;;11.00;99.90;;;;;;5051029;28;20059;-83
2021/04/27 09:08:37;;;;;;;21.23;9.60;;;11.10;99.90;;;;;;5070274;28;20044;-82
2021/04/27 09:11:29;;;;;;;23.08;9.48;;;11.20;99.90;;;;;;5061621;28;20057;-82
2021/04/27 09:14:12;;;;;;;25.00;11.40;;;11.30;99.90;;;;;;5034576;28;20097;-83
2021/04/27 09:16:43;;;;;;;18.83;9.15;;;11.40;99.90;;;;;;5072406;28;20398;-82
2021/04/27 09:19:10;;;;;;;21.35;9.45;;;11.40;99.90;;;;;;5053105;28;20044;-82
2021/04/27 09:21:39;;;;;;;32.97;10.55;;;11.40;99.90;;;;;;5067598;28;20400;-82
2021/04/27 09:24:15;;;;;;;23.55;10.95;;;11.50;99.90;;;;;;5069818;28;20052;-83
2021/04/27 09:26:51;;;;;;;25.00;10.45;;;11.60;99.90;;;;;;4709907;28;10000492;-83
2021/04/27 09:29:40;;;;;;;21.80;10.35;;;11.60;99.90;;;;;;5052821;28;20053;-84
2021/04/27 09:32:08;;;;;;;24.48;8.43;;;11.70;99.90;;;;;;5066137;28;20063;-86
2021/04/27 09:34:39;;;;;;;16.50;8.15;;;11.80;99.90;;;;;;5052438;28;20056;-84
2021/04/27 09:37:10;;;;;;;14.95;7.97;;;11.90;99.90;;;;;;5072467;28;20047;-83
2021/04/27 09:39:50;;;;;;;31.88;10.98;;;12.00;99.90;;;;;;5070513;28;20045;-85
2021/04/27 09:42:20;;;;;;;19.70;9.52;;;12.00;99.90;;;;;;5072608;28;20559;-93
2021/04/27 09:44:54;;;;;;;27.85;10.02;;;12.10;99.90;;;;;;5055568;28;20060;-85
2021/04/27 09:47:27;;;;;;;17.33;8.75;;;12.20;99.90;;;;;;5073855;28;20059;-86
2021/04/27 09:50:05;;;;;;;18.25;8.45;;;12.30;99.90;;;;;;5075201;28;20037;-82
2021/04/27 09:52:42;;;;;;;24.30;8.30;;;12.30;99.90;;;;;;5068968;28;20124;-83
2021/04/27 09:55:12;;;;;;;19.27;8.32;;;12.40;99.70;;;;;;5070392;28;20060;-88
2021/04/27 09:57:46;;;;;;;17.23;8.10;;;12.40;99.30;;;;;;5072787;28;20391;-82
2021/04/27 10:00:28;;;;;;;18.00;7.40;;;12.40;98.50;;;;;;5070385;28;20487;-83
2021/04/27 10:02:58;;;;;;;18.42;7.68;;;12.50;96.50;;;;;;5071849;28;20057;-83
2021/04/27 10:05:25;;;;;;;15.63;6.93;;;12.60;96.80;;;;;;5059071;28;20072;-85
2021/04/27 10:07:54;;;;;;;22.70;7.65;;;12.70;96.00;;;;;;5074345;28;20083;-84
2021/04/27 10:10:22;;;;;;;13.82;6.78;;;12.90;94.30;;;;;;5072032;28;20384;-85
2021/04/27 10:13:09;;;;;;;13.35;6.35;;;13.00;92.60;;;;;;5057824;28;20048;-83
2021/04/27 10:15:38;;;;;;;11.10;5.82;;;13.10;90.10;;;;;;5076976;28;20055;-84
2021/04/27 10:18:08;;;;;;;21.55;6.30;;;13.30;88.80;;;;;;5076656;28;20048;-89
2021/04/27 10:20:37;;;;;;;16.95;6.40;;;13.40;85.30;;;;;;5064146;28;20055;-84
2021/04/27 10:23:07;;;;;;;15.57;6.10;;;13.50;84.00;;;;;;5061171;28;20044;-84
2021/04/27 10:25:35;;;;;;;14.38;6.10;;;13.60;82.40;;;;;;5082291;28;20395;-83
2021/04/27 10:28:05;;;;;;;16.13;6.25;;;13.60;81.90;;;;;;5045170;28;20045;-82
2021/04/27 10:30:38;;;;;;;16.67;6.70;;;13.70;78.90;;;;;;5065598;28;20053;-83
2021/04/27 10:33:05;;;;;;;19.63;7.47;;;13.80;79.10;;;;;;5051907;28;20047;-84
2021/04/27 10:35:37;;;;;;;13.73;7.13;;;13.90;78.40;;;;;;5074251;28;20052;-83
2021/04/27 10:38:08;;;;;;;16.75;6.47;;;14.00;77.40;;;;;;5057759;28;20048;-83
2021/04/27 10:40:59;;;;;;;14.35;5.03;;;14.00;75.40;;;;;;5075572;28;20491;-84
2021/04/27 10:43:37;;;;;;;16.15;6.13;;;14.10;73.80;;;;;;5077528;28;20125;-82
2021/04/27 10:46:19;;;;;;;16.92;6.00;;;14.30;73.80;;;;;;5069452;28;20036;-83
2021/04/27 10:48:48;;;;;;;17.77;6.82;;;14.40;70.70;;;;;;5052428;28;20056;-84
2021/04/27 10:51:21;;;;;;;15.15;6.15;;;14.60;74.50;;;;;;5071627;28;20044;-83
2021/04/27 10:54:10;;;;;;;18.05;5.88;;;14.70;73.40;;;;;;5049417;28;20037;-80
2021/04/27 10:57:00;;;;;;;14.68;6.65;;;14.80;71.70;;;;;;5051192;28;20472;-83
2021/04/27 10:59:29;;;;;;;17.90;6.95;;;14.90;71.40;;;;;;5044688;28;20047;-83
2021/04/27 11:02:12;;;;;;;;;;;14.90;73.10;;;;;;5052758;28;20047;-83
2021/04/27 11:04:45;;;;;;;14.98;6.50;;;15.00;71.60;;;;;;5051381;28;19920;-83
2021/04/27 11:07:21;;;;;;;15.35;5.88;;;15.10;72.90;;;;;;5050495;28;20484;-83
2021/04/27 11:09:58;;;;;;;14.68;6.28;;;15.20;72.50;;;;;;5049946;28;20045;-83
2021/04/27 11:12:42;;;;;;;13.38;6.15;;;15.30;70.60;;;;;;5067726;28;20055;-80
2021/04/27 11:15:23;;;;;;;13.63;6.43;;;15.50;71.40;;;;;;5049275;28;20408;-81
2021/04/27 11:18:10;;;;;;;16.92;6.57;;;15.60;66.60;;;;;;5043407;28;20045;-82
2021/04/27 11:20:46;;;;;;;17.42;5.85;;;15.70;68.20;;;;;;5070388;28;20055;-80
2021/04/27 11:23:33;;;;;;;17.13;7.55;;;15.90;67.90;;;;;;5048788;28;20064;-81
2021/04/27 11:26:02;;;;;;;19.00;5.97;;;16.00;66.20;;;;;;5064673;28;20036;-81
2021/04/27 11:28:55;;;;;;;15.75;6.03;;;16.20;66.80;;;;;;5050087;28;20052;-80
2021/04/27 11:31:23;;;;;;;16.02;5.72;;;16.50;64.20;;;;;;5067485;28;20119;-81
2021/04/27 11:34:02;;;;;;;16.20;6.05;;;16.60;64.70;;;;;;5071958;28;20056;-82
2021/04/27 11:36:37;;;;;;;17.73;6.35;;;16.70;62.70;;;;;;5072416;28;20040;-80
2021/04/27 11:39:37;;;;;;;16.02;7.55;;;16.80;63.20;;;;;;5068198;28;20718;-81
2021/04/27 11:42:04;;;;;;;15.98;6.47;;;17.10;60.80;;;;;;5000508;28;20048;-81
2021/04/27 11:44:40;;;;;;;13.02;6.25;;;17.20;62.50;;;;;;5072359;28;20400;-81
2021/04/27 11:47:09;;;;;;;12.00;5.35;;;17.40;61.30;;;;;;5066210;28;20060;-81
2021/04/27 11:49:51;;;;;;;15.13;6.35;;;17.50;59.60;;;;;;5067749;28;20044;-80
2021/04/27 11:52:36;;;;;;;14.77;5.80;;;17.60;58.00;;;;;;5064904;28;20051;-81
2021/04/27 11:55:10;;;;;;;11.02;5.57;;;17.70;57.90;;;;;;5065536;28;20052;-82
2021/04/27 11:57:46;;;;;;;13.93;5.43;;;17.90;58.50;;;;;;5004307;28;20041;-82
2021/04/27 12:00:14;;;;;;;13.88;4.97;;;18.10;57.20;;;;;;5058295;28;20048;-83
2021/04/27 12:02:41;;;;;;;16.67;6.40;;;18.20;56.30;;;;;;5055062;28;20044;-80
2021/04/27 12:05:09;;;;;;;12.70;5.78;;;18.30;55.40;;;;;;5066361;28;20049;-80
2021/04/27 12:07:36;;;;;;;11.50;5.50;;;18.40;54.50;;;;;;5070062;28;20577;-83
2021/04/27 12:10:05;;;;;;;16.15;5.43;;;18.50;52.80;;;;;;5055566;28;20055;-80
2021/04/27 12:12:32;;;;;;;11.00;5.95;;;18.60;53.50;;;;;;5057949;28;20484;-80
2021/04/27 12:15:02;;;;;;;14.98;6.47;;;18.70;52.00;;;;;;5072042;28;20123;-81
2021/04/27 12:17:35;;;;;;;18.70;6.97;;;18.90;51.40;;;;;;5051847;28;20423;-81
2021/04/27 12:20:14;;;;;;;15.73;6.05;;;18.80;50.60;;;;;;5072599;28;20511;-83
2021/04/27 12:22:42;;;;;;;14.60;5.40;;;18.80;50.30;;;;;;5067050;28;20055;-82
2021/04/27 12:25:22;;;;;;;10.65;4.03;;;18.90;51.00;;;;;;5070036;28;20059;-82
2021/04/27 12:28:04;;;;;;;16.27;5.00;;;18.90;48.60;;;;;;5067765;28;20052;-81
2021/04/27 12:30:36;;;;;;;14.13;5.35;;;19.00;48.70;;;;;;5069006;28;20549;-81
2021/04/27 12:33:10;;;;;;;15.05;5.30;;;19.10;48.00;;;;;;5071243;28;20052;-81
2021/04/27 12:35:39;;;;;;;10.55;4.65;;;19.20;47.00;;;;;;5070233;28;20051;-81
2021/04/27 12:38:12;;;;;;;10.57;4.72;;;19.30;47.00;;;;;;5069562;28;20052;-81
2021/04/27 12:40:41;;;;;;;11.90;4.47;;;19.30;46.20;;;;;;5070814;28;20051;-80
2021/04/27 12:43:13;;;;;;;12.18;5.28;;;19.40;45.30;;;;;;5071527;28;20053;-81
2021/04/27 12:45:52;;;;;;;10.82;4.60;;;19.30;44.10;;;;;;5070665;28;20059;-83
2021/04/27 12:48:21;;;;;;;11.68;4.82;;;19.40;43.20;;;;;;5044001;28;20055;-81
2021/04/27 12:51:03;;;;;;;8.18;3.78;;;19.50;44.20;;;;;;5051246;28;20075;-81
2021/04/27 12:53:35;;;;;;;10.70;5.75;;;19.70;41.50;;;;;;5051317;28;20052;-84
2021/04/27 12:56:12;;;;;;;9.90;3.47;;;19.80;42.10;;;;;;5070138;28;20055;-83
2021/04/27 12:58:40;;;;;;;15.38;4.13;;;20.10;41.60;;;;;;5062019;28;20047;-84
2021/04/27 13:01:08;;;;;;;8.90;4.28;;;20.20;41.70;;;;;;5056465;28;20060;-83
2021/04/27 13:03:44;;;;;;;11.95;4.78;;;20.40;41.60;;;;;;5071096;28;20234;-82
2021/04/27 13:06:24;;;;;;;10.70;4.60;;;20.70;41.00;;;;;;5074111;28;20126;-82